createdAt,value
2018-09-17T00:00:09.754Z,4.48
2018-09-17T00:00:22.205Z,4.48
2018-09-17T00:00:34.672Z,4.48
2018-09-17T00:00:47.145Z,4.48
2018-09-17T00:00:59.585Z,4.48
2018-09-17T00:01:12.179Z,4.48
2018-09-17T00:01:24.608Z,4.48
2018-09-17T00:01:37.049Z,4.48
2018-09-17T00:01:49.474Z,4.48
2018-09-17T00:02:01.914Z,4.48
2018-09-17T00:02:14.471Z,4.48
2018-09-17T00:02:26.868Z,4.48
2018-09-17T00:02:39.292Z,4.48
2018-09-17T00:02:51.823Z,4.48
2018-09-17T00:03:04.282Z,4.48
2018-09-17T00:03:16.715Z,4.48
2018-09-17T00:03:29.589Z,4.48
2018-09-17T00:03:42.045Z,4.48
2018-09-17T00:03:54.450Z,4.48
2018-09-17T00:04:06.846Z,4.48
2018-09-17T00:04:19.273Z,4.48
2018-09-17T00:04:31.692Z,4.48
2018-09-17T00:04:44.101Z,4.48
2018-09-17T00:04:56.513Z,4.48
2018-09-17T00:05:09.013Z,4.48
2018-09-17T00:05:21.439Z,4.48
2018-09-17T00:05:33.848Z,4.48
2018-09-17T00:05:46.310Z,4.48
2018-09-17T00:05:58.755Z,4.48
2018-09-17T00:06:11.193Z,4.48
2018-09-17T00:06:23.626Z,4.48
2018-09-17T00:06:36.060Z,4.48
2018-09-17T00:06:48.479Z,4.48
2018-09-17T00:07:00.885Z,5.4
2018-09-17T00:07:13.314Z,5.4
2018-09-17T00:07:25.718Z,5.4
2018-09-17T00:07:38.134Z,5.4
2018-09-17T00:07:50.541Z,5.4
2018-09-17T00:08:02.965Z,5.4
2018-09-17T00:08:15.365Z,5.4
2018-09-17T00:08:27.846Z,5.4
2018-09-17T00:08:40.276Z,5.4
2018-09-17T00:08:52.703Z,5.4
2018-09-17T00:09:05.150Z,5.4
2018-09-17T00:09:17.572Z,5.4
2018-09-17T00:09:29.998Z,5.4
2018-09-17T00:09:42.403Z,5.4
2018-09-17T00:09:54.804Z,5.4
2018-09-17T00:10:07.208Z,5.4
2018-09-17T00:10:19.664Z,5.4
2018-09-17T00:10:32.106Z,5.4
2018-09-17T00:10:44.531Z,5.4
2018-09-17T00:10:56.958Z,5.4
2018-09-17T00:11:09.405Z,5.4
2018-09-17T00:11:21.841Z,5.4
2018-09-17T00:11:34.284Z,5.4
2018-09-17T00:11:46.738Z,5.4
2018-09-17T00:11:59.133Z,5.4
2018-09-17T00:12:11.520Z,5.4
2018-09-17T00:12:23.944Z,5.4
2018-09-17T00:12:36.430Z,5.4
2018-09-17T00:12:48.873Z,5.4
2018-09-17T00:13:01.292Z,5.4
2018-09-17T00:13:13.922Z,5.4
2018-09-17T00:13:26.330Z,5.4
2018-09-17T00:13:38.751Z,5.4
2018-09-17T00:13:51.197Z,5.4
2018-09-17T00:14:03.587Z,5.4
2018-09-17T00:14:15.986Z,5.4
2018-09-17T00:14:28.456Z,5.4
2018-09-17T00:14:41.029Z,5.4
2018-09-17T00:14:53.453Z,5.4
2018-09-17T00:15:05.837Z,5.4
2018-09-17T00:15:18.230Z,5.4
2018-09-17T00:15:30.652Z,5.4
2018-09-17T00:15:43.048Z,5.4
2018-09-17T00:15:55.455Z,5.4
2018-09-17T00:16:07.870Z,5.4
2018-09-17T00:16:20.336Z,5.4
2018-09-17T00:16:32.746Z,5.4
2018-09-17T00:16:45.157Z,5.4
2018-09-17T00:16:57.713Z,4.42
2018-09-17T00:17:10.139Z,4.42
2018-09-17T00:17:22.550Z,4.42
2018-09-17T00:17:34.966Z,4.42
2018-09-17T00:17:47.395Z,4.42
2018-09-17T00:17:59.813Z,4.42
2018-09-17T00:18:12.255Z,4.42
2018-09-17T00:18:24.689Z,4.42
2018-09-17T00:18:37.163Z,4.42
2018-09-17T00:18:49.602Z,4.42
2018-09-17T00:19:02.044Z,4.42
2018-09-17T00:19:14.528Z,4.42
2018-09-17T00:19:26.936Z,4.42
2018-09-17T00:19:39.659Z,4.42
2018-09-17T00:19:52.076Z,4.42
2018-09-17T00:20:04.497Z,4.42
2018-09-17T00:20:16.920Z,4.42
2018-09-17T00:20:29.326Z,4.42
2018-09-17T00:20:41.729Z,4.42
2018-09-17T00:20:54.134Z,4.42
2018-09-17T00:21:06.530Z,4.42
2018-09-17T00:21:18.925Z,4.42
2018-09-17T00:21:31.495Z,4.42
2018-09-17T00:21:43.905Z,4.42
2018-09-17T00:21:56.316Z,4.42
2018-09-17T00:22:08.724Z,4.42
2018-09-17T00:22:21.152Z,4.42
2018-09-17T00:22:33.586Z,4.42
2018-09-17T00:22:45.989Z,4.42
2018-09-17T00:22:58.377Z,4.42
2018-09-17T00:23:10.788Z,4.42
2018-09-17T00:23:23.448Z,4.42
2018-09-17T00:23:35.862Z,4.42
2018-09-17T00:23:48.275Z,4.42
2018-09-17T00:24:00.727Z,4.42
2018-09-17T00:24:13.205Z,4.42
2018-09-17T00:24:25.604Z,4.42
2018-09-17T00:24:38.001Z,4.42
2018-09-17T00:24:50.425Z,4.42
2018-09-17T00:25:02.855Z,4.42
2018-09-17T00:25:15.289Z,4.42
2018-09-17T00:25:27.827Z,4.42
2018-09-17T00:25:40.215Z,4.42
2018-09-17T00:25:52.617Z,4.42
2018-09-17T00:26:05.005Z,4.42
2018-09-17T00:26:17.410Z,4.42
2018-09-17T00:26:29.793Z,4.42
2018-09-17T00:26:42.225Z,4.42
2018-09-17T00:26:54.677Z,4.42
2018-09-17T00:27:07.079Z,4.95
2018-09-17T00:27:19.474Z,4.95
2018-09-17T00:27:31.878Z,4.95
2018-09-17T00:27:44.354Z,4.95
2018-09-17T00:27:56.780Z,4.95
2018-09-17T00:28:09.179Z,4.95
2018-09-17T00:28:22.126Z,4.95
2018-09-17T00:28:34.547Z,4.95
2018-09-17T00:28:46.972Z,4.95
2018-09-17T00:28:59.444Z,4.95
2018-09-17T00:29:11.864Z,4.95
2018-09-17T00:29:24.288Z,4.95
2018-09-17T00:29:36.683Z,4.95
2018-09-17T00:29:49.094Z,4.95
2018-09-17T00:30:01.490Z,4.95
2018-09-17T00:30:13.906Z,4.95
2018-09-17T00:30:26.609Z,4.95
2018-09-17T00:30:38.996Z,4.95
2018-09-17T00:30:51.405Z,4.95
2018-09-17T00:31:03.848Z,4.95
2018-09-17T00:31:16.248Z,4.95
2018-09-17T00:31:28.702Z,4.95
2018-09-17T00:31:41.090Z,4.95
2018-09-17T00:31:53.516Z,4.95
2018-09-17T00:32:05.940Z,4.95
2018-09-17T00:32:18.346Z,4.95
2018-09-17T00:32:30.759Z,4.95
2018-09-17T00:32:43.211Z,4.95
2018-09-17T00:32:55.604Z,4.95
2018-09-17T00:33:08.025Z,4.95
2018-09-17T00:33:20.430Z,4.95
2018-09-17T00:33:32.938Z,4.95
2018-09-17T00:33:45.329Z,4.95
2018-09-17T00:33:57.753Z,4.95
2018-09-17T00:34:10.370Z,4.95
2018-09-17T00:34:22.777Z,4.95
2018-09-17T00:34:35.173Z,4.95
2018-09-17T00:34:47.585Z,4.95
2018-09-17T00:34:59.993Z,4.95
2018-09-17T00:35:12.410Z,4.95
2018-09-17T00:35:24.860Z,4.95
2018-09-17T00:35:37.332Z,4.95
2018-09-17T00:35:49.751Z,4.95
2018-09-17T00:36:02.179Z,4.95
2018-09-17T00:36:14.624Z,4.95
2018-09-17T00:36:27.911Z,4.95
2018-09-17T00:36:40.340Z,4.95
2018-09-17T00:36:52.841Z,4.95
2018-09-17T00:37:05.246Z,5.13
2018-09-17T00:37:17.689Z,5.13
2018-09-17T00:37:30.127Z,5.13
2018-09-17T00:37:42.557Z,5.13
2018-09-17T00:37:54.982Z,5.13
2018-09-17T00:38:07.415Z,5.13
2018-09-17T00:38:19.836Z,5.13
2018-09-17T00:38:32.265Z,5.13
2018-09-17T00:38:44.668Z,5.13
2018-09-17T00:38:57.078Z,5.13
2018-09-17T00:39:09.472Z,5.13
2018-09-17T00:39:21.884Z,5.13
2018-09-17T00:39:34.289Z,5.13
2018-09-17T00:39:46.699Z,5.13
2018-09-17T00:39:59.161Z,5.13
2018-09-17T00:40:11.569Z,5.13
2018-09-17T00:40:24.088Z,5.13
2018-09-17T00:40:36.483Z,5.13
2018-09-17T00:40:48.889Z,5.13
2018-09-17T00:41:01.272Z,5.13
2018-09-17T00:41:13.675Z,5.13
2018-09-17T00:41:26.076Z,5.13
2018-09-17T00:41:38.476Z,5.13
2018-09-17T00:41:50.875Z,5.13
2018-09-17T00:42:03.444Z,5.13
2018-09-17T00:42:15.863Z,5.13
2018-09-17T00:42:28.293Z,5.13
2018-09-17T00:42:40.697Z,5.13
2018-09-17T00:42:53.106Z,5.13
2018-09-17T00:43:05.529Z,5.13
2018-09-17T00:43:17.937Z,5.13
2018-09-17T00:43:30.359Z,5.13
2018-09-17T00:43:42.778Z,5.13
2018-09-17T00:43:55.210Z,5.13
2018-09-17T00:44:07.639Z,5.13
2018-09-17T00:44:20.485Z,5.13
2018-09-17T00:44:33.095Z,5.13
2018-09-17T00:44:45.529Z,5.13
2018-09-17T00:44:57.949Z,5.13
2018-09-17T00:45:10.380Z,5.13
2018-09-17T00:45:22.796Z,5.13
2018-09-17T00:45:35.210Z,5.13
2018-09-17T00:45:47.627Z,5.13
2018-09-17T00:46:00.032Z,5.13
2018-09-17T00:46:12.429Z,5.13
2018-09-17T00:46:24.848Z,5.13
2018-09-17T00:46:37.312Z,5.13
2018-09-17T00:46:49.726Z,5.13
2018-09-17T00:47:02.147Z,5.71
2018-09-17T00:47:14.591Z,5.71
2018-09-17T00:47:27.019Z,5.71
2018-09-17T00:47:39.460Z,5.71
2018-09-17T00:47:51.896Z,5.71
2018-09-17T00:48:04.275Z,5.71
2018-09-17T00:48:16.705Z,5.71
2018-09-17T00:48:29.119Z,5.71
2018-09-17T00:48:41.561Z,5.71
2018-09-17T00:48:53.975Z,5.71
2018-09-17T00:49:06.374Z,5.71
2018-09-17T00:49:18.890Z,5.71
2018-09-17T00:49:31.333Z,5.71
2018-09-17T00:49:44.097Z,5.71
2018-09-17T00:49:56.491Z,5.71
2018-09-17T00:50:08.932Z,5.71
2018-09-17T00:50:21.326Z,5.71
2018-09-17T00:50:33.735Z,5.71
2018-09-17T00:50:46.132Z,5.71
2018-09-17T00:50:58.536Z,5.71
2018-09-17T00:51:11.112Z,5.71
2018-09-17T00:51:23.546Z,5.71
2018-09-17T00:51:35.941Z,5.71
2018-09-17T00:51:48.343Z,5.71
2018-09-17T00:52:00.790Z,5.71
2018-09-17T00:52:13.350Z,5.71
2018-09-17T00:52:25.753Z,5.71
2018-09-17T00:52:38.173Z,5.71
2018-09-17T00:52:50.580Z,5.71
2018-09-17T00:53:02.973Z,5.71
2018-09-17T00:53:15.433Z,5.71
2018-09-17T00:53:27.839Z,5.71
2018-09-17T00:53:40.235Z,5.71
2018-09-17T00:53:52.628Z,5.71
2018-09-17T00:54:05.055Z,5.71
2018-09-17T00:54:17.433Z,5.71
2018-09-17T00:54:29.902Z,5.71
2018-09-17T00:54:42.327Z,5.71
2018-09-17T00:54:54.719Z,5.71
2018-09-17T00:55:07.244Z,5.71
2018-09-17T00:55:19.644Z,5.71
2018-09-17T00:55:32.042Z,5.71
2018-09-17T00:55:44.563Z,5.71
2018-09-17T00:55:56.949Z,5.71
2018-09-17T00:56:09.338Z,5.71
2018-09-17T00:56:21.756Z,5.71
2018-09-17T00:56:34.176Z,5.71
2018-09-17T00:56:46.586Z,5.71
2018-09-17T00:56:58.979Z,5.58
2018-09-17T00:57:11.406Z,5.58
2018-09-17T00:57:23.808Z,5.58
2018-09-17T00:57:36.263Z,5.58
2018-09-17T00:57:49.289Z,5.58
2018-09-17T00:58:02.980Z,5.58
2018-09-17T00:58:15.465Z,5.58
2018-09-17T00:58:27.883Z,5.58
2018-09-17T00:58:40.296Z,5.58
2018-09-17T00:58:52.726Z,5.58
2018-09-17T00:59:05.303Z,5.58
2018-09-17T00:59:17.718Z,5.58
2018-09-17T00:59:30.151Z,5.58
2018-09-17T00:59:42.535Z,5.58
2018-09-17T00:59:54.964Z,5.58
2018-09-17T01:00:07.394Z,5.58
2018-09-17T01:00:19.828Z,5.58
2018-09-17T01:00:32.255Z,5.58
2018-09-17T01:00:44.677Z,5.58
2018-09-17T01:00:57.127Z,5.58
2018-09-17T01:01:09.543Z,5.58
2018-09-17T01:01:21.976Z,5.58
2018-09-17T01:01:34.415Z,5.58
2018-09-17T01:01:46.828Z,5.58
2018-09-17T01:01:59.247Z,5.58
2018-09-17T01:02:11.668Z,5.58
2018-09-17T01:02:24.093Z,5.58
2018-09-17T01:02:36.493Z,5.58
2018-09-17T01:02:48.894Z,5.58
2018-09-17T01:03:01.323Z,5.58
2018-09-17T01:03:13.758Z,5.58
2018-09-17T01:03:26.613Z,5.58
2018-09-17T01:03:39.032Z,5.58
2018-09-17T01:03:51.447Z,5.58
2018-09-17T01:04:03.920Z,5.58
2018-09-17T01:04:16.331Z,5.58
2018-09-17T01:04:28.733Z,5.58
2018-09-17T01:04:41.136Z,5.58
2018-09-17T01:04:53.561Z,5.58
2018-09-17T01:05:06.014Z,5.58
2018-09-17T01:05:18.425Z,5.58
2018-09-17T01:05:30.827Z,5.58
2018-09-17T01:05:43.236Z,5.58
2018-09-17T01:05:55.641Z,5.58
2018-09-17T01:06:08.046Z,5.58
2018-09-17T01:06:20.434Z,5.58
2018-09-17T01:06:32.826Z,5.58
2018-09-17T01:06:45.225Z,5.58
2018-09-17T01:06:57.654Z,5.58
2018-09-17T01:07:10.063Z,5.58
2018-09-17T01:07:22.505Z,5.58
2018-09-17T01:07:34.920Z,5.58
2018-09-17T01:07:47.356Z,5.58
2018-09-17T01:07:59.773Z,5.58
2018-09-17T01:08:12.169Z,5.58
2018-09-17T01:08:24.696Z,5.58
2018-09-17T01:08:37.875Z,5.58
2018-09-17T01:08:50.261Z,5.58
2018-09-17T01:09:02.669Z,5.58
2018-09-17T01:09:15.094Z,5.58
2018-09-17T01:09:27.537Z,5.58
2018-09-17T01:09:39.999Z,5.58
2018-09-17T01:09:52.409Z,5.58
2018-09-17T01:10:04.873Z,5.58
2018-09-17T01:10:17.284Z,5.58
2018-09-17T01:10:29.810Z,5.58
2018-09-17T01:10:42.207Z,5.58
2018-09-17T01:10:54.628Z,5.58
2018-09-17T01:11:07.041Z,5.58
2018-09-17T01:11:19.458Z,5.58
2018-09-17T01:11:31.893Z,5.58
2018-09-17T01:11:44.317Z,5.58
2018-09-17T01:11:56.738Z,5.58
2018-09-17T01:12:09.140Z,5.58
2018-09-17T01:12:21.558Z,5.58
2018-09-17T01:12:33.973Z,5.58
2018-09-17T01:12:46.391Z,5.58
2018-09-17T01:12:58.806Z,5.58
2018-09-17T01:13:11.229Z,5.58
2018-09-17T01:13:23.825Z,5.58
2018-09-17T01:13:36.258Z,5.58
2018-09-17T01:13:48.657Z,5.58
2018-09-17T01:14:01.058Z,5.58
2018-09-17T01:14:13.470Z,5.58
2018-09-17T01:14:25.867Z,5.58
2018-09-17T01:14:38.517Z,5.58
2018-09-17T01:14:51.041Z,5.58
2018-09-17T01:15:03.494Z,5.58
2018-09-17T01:15:15.917Z,5.58
2018-09-17T01:15:28.345Z,5.58
2018-09-17T01:15:40.761Z,5.58
2018-09-17T01:15:53.185Z,5.58
2018-09-17T01:16:05.580Z,5.58
2018-09-17T01:16:18.006Z,5.58
2018-09-17T01:16:30.396Z,5.58
2018-09-17T01:16:42.795Z,5.58
2018-09-17T01:16:55.285Z,5.58
2018-09-17T01:17:07.768Z,5.38
2018-09-17T01:17:20.165Z,5.38
2018-09-17T01:17:32.565Z,5.38
2018-09-17T01:17:44.966Z,5.38
2018-09-17T01:17:57.384Z,5.38
2018-09-17T01:18:09.791Z,5.38
2018-09-17T01:18:22.198Z,5.38
2018-09-17T01:18:34.629Z,5.38
2018-09-17T01:18:47.027Z,5.38
2018-09-17T01:18:59.487Z,5.38
2018-09-17T01:19:11.908Z,5.38
2018-09-17T01:19:24.348Z,5.38
2018-09-17T01:19:36.762Z,5.38
2018-09-17T01:19:49.171Z,5.38
2018-09-17T01:20:01.573Z,5.38
2018-09-17T01:20:14.000Z,5.38
2018-09-17T01:20:26.411Z,5.38
2018-09-17T01:20:38.894Z,5.38
2018-09-17T01:20:51.300Z,5.38
2018-09-17T01:21:03.851Z,5.38
2018-09-17T01:21:16.252Z,5.38
2018-09-17T01:21:28.944Z,5.38
2018-09-17T01:21:41.365Z,5.38
2018-09-17T01:21:53.774Z,5.38
2018-09-17T01:22:06.194Z,5.38
2018-09-17T01:22:18.629Z,5.38
2018-09-17T01:22:31.042Z,5.38
2018-09-17T01:22:43.455Z,5.38
2018-09-17T01:22:55.864Z,5.38
2018-09-17T01:23:08.256Z,5.38
2018-09-17T01:23:20.801Z,5.38
2018-09-17T01:23:33.225Z,5.38
2018-09-17T01:23:45.642Z,5.38
2018-09-17T01:23:58.063Z,5.38
2018-09-17T01:24:10.686Z,5.38
2018-09-17T01:24:23.115Z,5.38
2018-09-17T01:24:35.510Z,5.38
2018-09-17T01:24:47.979Z,5.38
2018-09-17T01:25:00.392Z,5.38
2018-09-17T01:25:12.820Z,5.38
2018-09-17T01:25:25.270Z,5.38
2018-09-17T01:25:37.851Z,5.38
2018-09-17T01:25:50.273Z,5.38
2018-09-17T01:26:02.716Z,5.38
2018-09-17T01:26:15.164Z,5.38
2018-09-17T01:26:27.580Z,5.38
2018-09-17T01:26:40.008Z,5.38
2018-09-17T01:26:52.402Z,5.38
2018-09-17T01:27:04.818Z,6.29
2018-09-17T01:27:17.243Z,6.29
2018-09-17T01:27:29.669Z,6.29
2018-09-17T01:27:42.105Z,6.29
2018-09-17T01:27:54.510Z,6.29
2018-09-17T01:28:06.915Z,6.29
2018-09-17T01:28:19.318Z,6.29
2018-09-17T01:28:31.780Z,6.29
2018-09-17T01:28:44.212Z,6.29
2018-09-17T01:28:56.648Z,6.29
2018-09-17T01:29:09.128Z,6.29
2018-09-17T01:29:21.539Z,6.29
2018-09-17T01:29:33.945Z,6.29
2018-09-17T01:29:46.348Z,6.29
2018-09-17T01:29:58.764Z,6.29
2018-09-17T01:30:11.157Z,6.29
2018-09-17T01:30:23.871Z,6.29
2018-09-17T01:30:37.235Z,6.29
2018-09-17T01:30:50.990Z,6.29
2018-09-17T01:31:03.543Z,6.29
2018-09-17T01:31:15.993Z,6.29
2018-09-17T01:31:28.420Z,6.29
2018-09-17T01:31:41.239Z,6.29
2018-09-17T01:31:53.670Z,6.29
2018-09-17T01:32:06.089Z,6.29
2018-09-17T01:32:18.491Z,6.29
2018-09-17T01:32:30.916Z,6.29
2018-09-17T01:32:43.409Z,6.29
2018-09-17T01:32:56.026Z,6.29
2018-09-17T01:33:08.472Z,6.29
2018-09-17T01:33:20.895Z,6.29
2018-09-17T01:33:33.450Z,6.29
2018-09-17T01:33:45.868Z,6.29
2018-09-17T01:33:58.275Z,6.29
2018-09-17T01:34:10.736Z,6.29
2018-09-17T01:34:23.213Z,6.29
2018-09-17T01:34:35.668Z,6.29
2018-09-17T01:34:48.080Z,6.29
2018-09-17T01:35:00.548Z,6.29
2018-09-17T01:35:12.974Z,6.29
2018-09-17T01:35:25.422Z,6.29
2018-09-17T01:35:37.807Z,6.29
2018-09-17T01:35:50.357Z,6.29
2018-09-17T01:36:02.778Z,6.29
2018-09-17T01:36:15.178Z,6.29
2018-09-17T01:36:27.682Z,6.29
2018-09-17T01:36:40.141Z,6.29
2018-09-17T01:36:52.620Z,6.29
2018-09-17T01:37:05.100Z,6.33
2018-09-17T01:37:17.577Z,6.33
2018-09-17T01:37:30.006Z,6.33
2018-09-17T01:37:42.448Z,6.33
2018-09-17T01:37:54.894Z,6.33
2018-09-17T01:38:07.335Z,6.33
2018-09-17T01:38:19.778Z,6.33
2018-09-17T01:38:32.206Z,6.33
2018-09-17T01:38:44.612Z,6.33
2018-09-17T01:38:57.103Z,6.33
2018-09-17T01:39:09.524Z,6.33
2018-09-17T01:39:21.981Z,6.33
2018-09-17T01:39:34.411Z,6.33
2018-09-17T01:39:46.813Z,6.33
2018-09-17T01:39:59.199Z,6.33
2018-09-17T01:40:11.602Z,6.33
2018-09-17T01:40:24.112Z,6.33
2018-09-17T01:40:36.527Z,6.33
2018-09-17T01:40:48.953Z,6.33
2018-09-17T01:41:01.383Z,6.33
2018-09-17T01:41:13.790Z,6.33
2018-09-17T01:41:26.214Z,6.33
2018-09-17T01:41:38.623Z,6.33
2018-09-17T01:41:51.094Z,6.33
2018-09-17T01:42:03.539Z,6.33
2018-09-17T01:42:15.934Z,6.33
2018-09-17T01:42:28.328Z,6.33
2018-09-17T01:42:40.723Z,6.33
2018-09-17T01:42:53.158Z,6.33
2018-09-17T01:43:05.573Z,6.33
2018-09-17T01:43:17.981Z,6.33
2018-09-17T01:43:30.399Z,6.33
2018-09-17T01:43:42.797Z,6.33
2018-09-17T01:43:55.224Z,6.33
2018-09-17T01:44:07.644Z,6.33
2018-09-17T01:44:20.177Z,6.33
2018-09-17T01:44:32.735Z,6.33
2018-09-17T01:44:45.180Z,6.33
2018-09-17T01:44:57.572Z,6.33
2018-09-17T01:45:10.029Z,6.33
2018-09-17T01:45:22.439Z,6.33
2018-09-17T01:45:34.859Z,6.33
2018-09-17T01:45:47.351Z,6.33
2018-09-17T01:45:59.741Z,6.33
2018-09-17T01:46:12.660Z,6.33
2018-09-17T01:46:26.288Z,6.33
2018-09-17T01:46:38.714Z,6.33
2018-09-17T01:46:51.183Z,6.33
2018-09-17T01:47:03.604Z,5.85
2018-09-17T01:47:16.032Z,5.85
2018-09-17T01:47:28.464Z,5.85
2018-09-17T01:47:40.909Z,5.85
2018-09-17T01:47:53.347Z,5.85
2018-09-17T01:48:05.777Z,5.85
2018-09-17T01:48:18.338Z,5.85
2018-09-17T01:48:30.772Z,5.85
2018-09-17T01:48:43.187Z,5.85
2018-09-17T01:48:55.628Z,5.85
2018-09-17T01:49:08.061Z,5.85
2018-09-17T01:49:20.667Z,5.85
2018-09-17T01:49:33.148Z,5.85
2018-09-17T01:49:45.592Z,5.85
2018-09-17T01:49:58.446Z,5.85
2018-09-17T01:50:10.878Z,5.85
2018-09-17T01:50:23.309Z,5.85
2018-09-17T01:50:35.724Z,5.85
2018-09-17T01:50:48.303Z,5.85
2018-09-17T01:51:00.728Z,5.85
2018-09-17T01:51:13.150Z,5.85
2018-09-17T01:51:25.560Z,5.85
2018-09-17T01:51:37.966Z,5.85
2018-09-17T01:51:50.372Z,5.85
2018-09-17T01:52:02.839Z,5.85
2018-09-17T01:52:15.258Z,5.85
2018-09-17T01:52:27.700Z,5.85
2018-09-17T01:52:40.148Z,5.85
2018-09-17T01:52:52.591Z,5.85
2018-09-17T01:53:05.009Z,5.85
2018-09-17T01:53:17.433Z,5.85
2018-09-17T01:53:29.844Z,5.85
2018-09-17T01:53:42.240Z,5.85
2018-09-17T01:53:54.668Z,5.85
2018-09-17T01:54:07.071Z,5.85
2018-09-17T01:54:19.528Z,5.85
2018-09-17T01:54:31.918Z,5.85
2018-09-17T01:54:44.315Z,5.85
2018-09-17T01:54:56.740Z,5.85
2018-09-17T01:55:09.144Z,5.85
2018-09-17T01:55:21.553Z,5.85
2018-09-17T01:55:33.984Z,5.85
2018-09-17T01:55:46.552Z,5.85
2018-09-17T01:55:58.971Z,5.85
2018-09-17T01:56:11.372Z,5.85
2018-09-17T01:56:23.802Z,5.85
2018-09-17T01:56:36.276Z,5.85
2018-09-17T01:56:48.695Z,5.85
2018-09-17T01:57:01.115Z,5.85
2018-09-17T01:57:13.556Z,6.15
2018-09-17T01:57:26.008Z,6.15
2018-09-17T01:57:38.416Z,6.15
2018-09-17T01:57:50.834Z,6.15
2018-09-17T01:58:03.274Z,6.15
2018-09-17T01:58:15.690Z,6.15
2018-09-17T01:58:28.120Z,6.15
2018-09-17T01:58:40.550Z,6.15
2018-09-17T01:58:53.184Z,6.15
2018-09-17T01:59:05.621Z,6.15
2018-09-17T01:59:18.081Z,6.15
2018-09-17T01:59:30.495Z,6.15
2018-09-17T01:59:42.916Z,6.15
2018-09-17T01:59:55.353Z,6.15
2018-09-17T02:00:07.794Z,6.15
2018-09-17T02:00:20.227Z,6.15
2018-09-17T02:00:32.640Z,6.15
2018-09-17T02:00:45.105Z,6.15
2018-09-17T02:00:57.544Z,6.15
2018-09-17T02:01:10.140Z,6.15
2018-09-17T02:01:22.623Z,6.15
2018-09-17T02:01:35.089Z,6.15
2018-09-17T02:01:47.540Z,6.15
2018-09-17T02:02:00.000Z,6.15
2018-09-17T02:02:12.442Z,6.15
2018-09-17T02:02:24.859Z,6.15
2018-09-17T02:02:37.261Z,6.15
2018-09-17T02:02:49.709Z,6.15
2018-09-17T02:03:02.127Z,6.15
2018-09-17T02:03:14.541Z,6.15
2018-09-17T02:03:27.177Z,6.15
2018-09-17T02:03:39.582Z,6.15
2018-09-17T02:03:52.069Z,6.15
2018-09-17T02:04:04.481Z,6.15
2018-09-17T02:04:16.907Z,6.15
2018-09-17T02:04:29.310Z,6.15
2018-09-17T02:04:41.726Z,6.15
2018-09-17T02:04:54.165Z,6.15
2018-09-17T02:05:06.630Z,6.15
2018-09-17T02:05:19.042Z,6.15
2018-09-17T02:05:31.456Z,6.15
2018-09-17T02:05:43.862Z,6.15
2018-09-17T02:05:56.269Z,6.15
2018-09-17T02:06:08.672Z,6.15
2018-09-17T02:06:21.112Z,6.15
2018-09-17T02:06:33.518Z,6.15
2018-09-17T02:06:45.917Z,6.15
2018-09-17T02:06:58.715Z,6.15
2018-09-17T02:07:11.112Z,5.81
2018-09-17T02:07:23.542Z,5.81
2018-09-17T02:07:36.025Z,5.81
2018-09-17T02:07:48.418Z,5.81
2018-09-17T02:08:00.956Z,5.81
2018-09-17T02:08:14.351Z,5.81
2018-09-17T02:08:26.808Z,5.81
2018-09-17T02:08:40.020Z,5.81
2018-09-17T02:08:53.257Z,5.81
2018-09-17T02:09:06.562Z,5.81
2018-09-17T02:09:19.725Z,5.81
2018-09-17T02:09:32.333Z,5.81
2018-09-17T02:09:45.213Z,5.81
2018-09-17T02:09:58.360Z,5.81
2018-09-17T02:10:11.546Z,5.81
2018-09-17T02:10:24.039Z,5.81
2018-09-17T02:10:36.455Z,5.81
2018-09-17T02:10:48.872Z,5.81
2018-09-17T02:11:01.280Z,5.81
2018-09-17T02:11:13.698Z,5.81
2018-09-17T02:11:26.113Z,5.81
2018-09-17T02:11:38.527Z,5.81
2018-09-17T02:11:50.972Z,5.81
2018-09-17T02:12:03.402Z,5.81
2018-09-17T02:12:15.802Z,5.81
2018-09-17T02:12:28.207Z,5.81
2018-09-17T02:12:40.619Z,5.81
2018-09-17T02:12:53.026Z,5.81
2018-09-17T02:13:05.441Z,5.81
2018-09-17T02:13:17.963Z,5.81
2018-09-17T02:13:30.395Z,5.81
2018-09-17T02:13:42.788Z,5.81
2018-09-17T02:13:55.184Z,5.81
2018-09-17T02:14:07.609Z,5.81
2018-09-17T02:14:20.355Z,5.81
2018-09-17T02:14:32.758Z,5.81
2018-09-17T02:14:45.315Z,5.81
2018-09-17T02:14:57.723Z,5.81
2018-09-17T02:15:10.138Z,5.81
2018-09-17T02:15:22.544Z,5.81
2018-09-17T02:15:35.014Z,5.81
2018-09-17T02:15:47.426Z,5.81
2018-09-17T02:15:59.843Z,5.81
2018-09-17T02:16:12.254Z,5.81
2018-09-17T02:16:24.656Z,5.81
2018-09-17T02:16:37.060Z,5.81
2018-09-17T02:16:49.522Z,5.81
2018-09-17T02:17:01.997Z,5.81
2018-09-17T02:17:14.454Z,6.49
2018-09-17T02:17:27.044Z,6.49
2018-09-17T02:17:39.463Z,6.49
2018-09-17T02:17:51.875Z,6.49
2018-09-17T02:18:04.288Z,6.49
2018-09-17T02:18:16.709Z,6.49
2018-09-17T02:18:29.114Z,6.49
2018-09-17T02:18:41.522Z,6.49
2018-09-17T02:18:53.991Z,6.49
2018-09-17T02:19:06.394Z,6.49
2018-09-17T02:19:18.809Z,6.49
2018-09-17T02:19:31.220Z,6.49
2018-09-17T02:19:43.655Z,6.49
2018-09-17T02:19:56.060Z,6.49
2018-09-17T02:20:08.479Z,6.49
2018-09-17T02:20:20.903Z,6.49
2018-09-17T02:20:33.311Z,6.49
2018-09-17T02:20:45.717Z,6.49
2018-09-17T02:20:58.125Z,6.49
2018-09-17T02:21:10.539Z,6.49
2018-09-17T02:21:22.961Z,6.49
2018-09-17T02:21:35.419Z,6.49
2018-09-17T02:21:47.821Z,6.49
2018-09-17T02:22:00.220Z,6.49
2018-09-17T02:22:12.683Z,6.49
2018-09-17T02:22:25.104Z,6.49
2018-09-17T02:22:37.511Z,6.49
2018-09-17T02:22:49.912Z,6.49
2018-09-17T02:23:02.325Z,6.49
2018-09-17T02:23:14.747Z,6.49
2018-09-17T02:23:27.320Z,6.49
2018-09-17T02:23:39.719Z,6.49
2018-09-17T02:23:52.121Z,6.49
2018-09-17T02:24:04.668Z,6.49
2018-09-17T02:24:17.082Z,6.49
2018-09-17T02:24:29.528Z,6.49
2018-09-17T02:24:41.921Z,6.49
2018-09-17T02:24:54.307Z,6.49
2018-09-17T02:25:06.717Z,6.49
2018-09-17T02:25:19.135Z,6.49
2018-09-17T02:25:31.556Z,6.49
2018-09-17T02:25:43.967Z,6.49
2018-09-17T02:25:56.604Z,6.49
2018-09-17T02:26:09.015Z,6.49
2018-09-17T02:26:21.436Z,6.49
2018-09-17T02:26:33.829Z,6.49
2018-09-17T02:26:46.242Z,6.49
2018-09-17T02:26:58.643Z,6.49
2018-09-17T02:27:11.057Z,5.48
2018-09-17T02:27:23.486Z,5.48
2018-09-17T02:27:35.895Z,5.48
2018-09-17T02:27:48.364Z,5.48
2018-09-17T02:28:00.788Z,5.48
2018-09-17T02:28:13.274Z,5.48
2018-09-17T02:28:25.769Z,5.48
2018-09-17T02:28:38.170Z,5.48
2018-09-17T02:28:50.576Z,5.48
2018-09-17T02:29:03.016Z,5.48
2018-09-17T02:29:15.454Z,5.48
2018-09-17T02:29:27.944Z,5.48
2018-09-17T02:29:40.352Z,5.48
2018-09-17T02:29:52.786Z,5.48
2018-09-17T02:30:05.218Z,5.48
2018-09-17T02:30:17.700Z,5.48
2018-09-17T02:30:30.128Z,5.48
2018-09-17T02:30:42.522Z,5.48
2018-09-17T02:30:55.019Z,5.48
2018-09-17T02:31:07.447Z,5.48
2018-09-17T02:31:19.900Z,5.48
2018-09-17T02:31:32.318Z,5.48
2018-09-17T02:31:44.823Z,5.48
2018-09-17T02:31:57.258Z,5.48
2018-09-17T02:32:09.666Z,5.48
2018-09-17T02:32:22.089Z,5.48
2018-09-17T02:32:34.530Z,5.48
2018-09-17T02:32:46.976Z,5.48
2018-09-17T02:32:59.389Z,5.48
2018-09-17T02:33:11.828Z,5.48
2018-09-17T02:33:24.260Z,5.48
2018-09-17T02:33:36.844Z,5.48
2018-09-17T02:33:49.274Z,5.48
2018-09-17T02:34:01.734Z,5.48
2018-09-17T02:34:14.151Z,5.48
2018-09-17T02:34:26.595Z,5.48
2018-09-17T02:34:39.065Z,5.48
2018-09-17T02:34:51.504Z,5.48
2018-09-17T02:35:04.002Z,5.48
2018-09-17T02:35:16.416Z,5.48
2018-09-17T02:35:28.828Z,5.48
2018-09-17T02:35:41.272Z,5.48
2018-09-17T02:35:53.705Z,5.48
2018-09-17T02:36:06.187Z,5.48
2018-09-17T02:36:18.610Z,5.48
2018-09-17T02:36:31.211Z,5.48
2018-09-17T02:36:43.663Z,5.48
2018-09-17T02:36:56.113Z,5.48
2018-09-17T02:37:08.526Z,6.67
2018-09-17T02:37:21.017Z,6.67
2018-09-17T02:37:33.453Z,6.67
2018-09-17T02:37:45.886Z,6.67
2018-09-17T02:37:58.323Z,6.67
2018-09-17T02:38:10.748Z,6.67
2018-09-17T02:38:23.271Z,6.67
2018-09-17T02:38:35.686Z,6.67
2018-09-17T02:38:48.124Z,6.67
2018-09-17T02:39:00.592Z,6.67
2018-09-17T02:39:13.005Z,6.67
2018-09-17T02:39:25.453Z,6.67
2018-09-17T02:39:37.906Z,6.67
2018-09-17T02:39:50.331Z,6.67
2018-09-17T02:40:02.768Z,6.67
2018-09-17T02:40:15.347Z,6.67
2018-09-17T02:40:27.788Z,6.67
2018-09-17T02:40:40.216Z,6.67
2018-09-17T02:40:52.655Z,6.67
2018-09-17T02:41:05.072Z,6.67
2018-09-17T02:41:17.501Z,6.67
2018-09-17T02:41:29.921Z,6.67
2018-09-17T02:41:42.352Z,6.67
2018-09-17T02:41:54.753Z,6.67
2018-09-17T02:42:07.202Z,6.67
2018-09-17T02:42:19.625Z,6.67
2018-09-17T02:42:32.059Z,6.67
2018-09-17T02:42:44.465Z,6.67
2018-09-17T02:42:56.893Z,6.67
2018-09-17T02:43:09.320Z,6.67
2018-09-17T02:43:21.761Z,6.67
2018-09-17T02:43:34.230Z,6.67
2018-09-17T02:43:46.636Z,6.67
2018-09-17T02:43:59.055Z,6.67
2018-09-17T02:44:11.495Z,6.67
2018-09-17T02:44:24.279Z,6.67
2018-09-17T02:44:36.706Z,6.67
2018-09-17T02:44:49.144Z,6.67
2018-09-17T02:45:01.558Z,6.67
2018-09-17T02:45:13.964Z,6.67
2018-09-17T02:45:26.401Z,6.67
2018-09-17T02:45:38.809Z,6.67
2018-09-17T02:45:51.226Z,6.67
2018-09-17T02:46:03.653Z,6.67
2018-09-17T02:46:16.060Z,6.67